createdAt,value
2017-11-24T00:00:30.366Z,98.83
2017-11-24T00:02:59.329Z,91.57
2017-11-24T00:05:27.742Z,96.80
2017-11-24T00:07:56.594Z,90.23
2017-11-24T00:10:25.211Z,99.50
2017-11-24T00:12:53.255Z,83.87
2017-11-24T00:15:21.690Z,86.80
2017-11-24T00:17:54.174Z,90.83
2017-11-24T00:20:22.625Z,85.10
2017-11-24T00:22:50.762Z,102.87
2017-11-24T00:25:18.580Z,98.03
2017-11-24T00:27:47.935Z,92.50
2017-11-24T00:30:15.411Z,87.93
2017-11-24T00:32:44.854Z,79.10
2017-11-24T00:35:13.887Z,82.93
2017-11-24T00:37:41.362Z,95.47
2017-11-24T00:40:09.415Z,76.97
2017-11-24T00:42:37.730Z,83.13
2017-11-24T00:45:05.609Z,93.43
2017-11-24T00:47:33.848Z,82.27
2017-11-24T00:50:01.768Z,85.97
2017-11-24T00:52:30.266Z,86.17
2017-11-24T00:54:59.684Z,69.57
2017-11-24T00:57:27.338Z,84.07
2017-11-24T00:59:55.553Z,87.17
2017-11-24T01:02:23.563Z,83.60
2017-11-24T01:04:51.820Z,76.63
2017-11-24T01:07:19.298Z,95.53
2017-11-24T01:09:47.544Z,76.67
2017-11-24T01:12:15.031Z,83.60
2017-11-24T01:14:42.503Z,91.30
2017-11-24T01:17:10.737Z,80.43
2017-11-24T01:19:38.209Z,81.03
2017-11-24T01:22:05.685Z,86.23
2017-11-24T01:24:33.935Z,78.53
2017-11-24T01:27:01.406Z,81.60
2017-11-24T01:29:29.642Z,77.40
2017-11-24T01:31:57.126Z,78.13
2017-11-24T01:34:24.598Z,79.83
2017-11-24T01:36:52.083Z,77.57
2017-11-24T01:39:20.330Z,64.23
2017-11-24T01:41:47.816Z,70.40
2017-11-24T01:44:16.070Z,72.03
2017-11-24T01:46:43.555Z,73.20
2017-11-24T01:49:11.800Z,73.80
2017-11-24T01:51:40.787Z,66.73
2017-11-24T01:54:08.261Z,66.10
2017-11-24T01:56:35.740Z,73.00
2017-11-24T01:59:03.983Z,64.97
2017-11-24T02:01:31.463Z,63.87
2017-11-24T02:03:59.722Z,86.07
2017-11-24T02:06:27.199Z,58.60
2017-11-24T02:08:54.679Z,68.03
2017-11-24T02:11:22.922Z,61.03
2017-11-24T02:13:50.397Z,63.40
2017-11-24T02:16:17.879Z,72.60
2017-11-24T02:18:45.358Z,69.53
2017-11-24T02:21:12.842Z,69.03
2017-11-24T02:23:40.319Z,69.53
2017-11-24T02:26:07.799Z,70.07
2017-11-24T02:28:36.039Z,66.47
2017-11-24T02:31:03.513Z,64.57
2017-11-24T02:33:32.498Z,54.53
2017-11-24T02:35:59.980Z,56.83
2017-11-24T02:38:28.226Z,60.33
2017-11-24T02:40:55.691Z,61.97
2017-11-24T02:43:23.167Z,67.33
2017-11-24T02:45:50.638Z,56.00
2017-11-24T02:48:18.883Z,72.83
2017-11-24T02:50:46.364Z,59.00
2017-11-24T02:53:14.612Z,59.63
2017-11-24T02:55:42.091Z,70.10
2017-11-24T02:58:09.562Z,60.13
2017-11-24T03:00:37.810Z,68.63
2017-11-24T03:03:05.290Z,63.87
2017-11-24T03:05:32.767Z,55.27
2017-11-24T03:08:01.019Z,57.10
2017-11-24T03:10:28.511Z,58.87
2017-11-24T03:12:56.755Z,51.80
2017-11-24T03:15:24.271Z,53.93
2017-11-24T03:17:51.758Z,59.17
2017-11-24T03:20:19.243Z,59.83
2017-11-24T03:22:46.727Z,53.37
2017-11-24T03:25:14.218Z,50.73
2017-11-24T03:27:41.693Z,57.60
2017-11-24T03:30:09.165Z,56.30
2017-11-24T03:32:36.650Z,59.70
2017-11-24T03:35:04.890Z,53.90
2017-11-24T03:37:32.368Z,49.60
2017-11-24T03:39:59.855Z,47.10
2017-11-24T03:42:28.106Z,45.23
2017-11-24T03:44:55.590Z,48.00
2017-11-24T03:47:23.833Z,56.07
2017-11-24T03:49:52.091Z,54.13
2017-11-24T03:52:19.567Z,53.00
2017-11-24T03:54:47.055Z,44.90
2017-11-24T03:57:15.295Z,51.33
2017-11-24T03:59:42.775Z,50.07
2017-11-24T04:02:10.692Z,53.00
2017-11-24T04:04:38.212Z,48.77
2017-11-24T04:07:06.459Z,49.87
2017-11-24T04:09:33.949Z,58.63
2017-11-24T04:12:02.202Z,56.43
2017-11-24T04:14:29.691Z,51.17
2017-11-24T04:16:57.939Z,45.93
2017-11-24T04:19:26.919Z,52.40
2017-11-24T04:21:54.404Z,45.77
2017-11-24T04:24:21.886Z,48.70
2017-11-24T04:26:49.375Z,45.67
2017-11-24T04:29:16.849Z,43.33
2017-11-24T04:31:44.323Z,47.13
2017-11-24T04:34:11.798Z,55.17
2017-11-24T04:36:39.274Z,53.33
2017-11-24T04:39:07.514Z,59.80
2017-11-24T04:41:34.991Z,44.10
2017-11-24T04:44:02.474Z,49.93
2017-11-24T04:46:29.953Z,44.77
2017-11-24T04:48:57.437Z,43.37
2017-11-24T04:51:24.910Z,47.37
2017-11-24T04:53:52.395Z,47.33
2017-11-24T04:56:20.639Z,47.50
2017-11-24T04:58:48.118Z,46.57
2017-11-24T05:01:15.588Z,46.43
2017-11-24T05:03:43.822Z,49.00
2017-11-24T05:06:11.293Z,62.33
2017-11-24T05:08:38.767Z,48.60
2017-11-24T05:11:06.247Z,42.27
2017-11-24T05:13:34.486Z,48.70
2017-11-24T05:16:01.960Z,53.67
2017-11-24T05:18:29.433Z,46.73
2017-11-24T05:20:57.666Z,56.13
2017-11-24T05:23:25.134Z,48.80
2017-11-24T05:25:52.667Z,55.47
2017-11-24T05:28:20.147Z,47.33
2017-11-24T05:30:47.630Z,47.97
2017-11-24T05:33:15.109Z,51.73
2017-11-24T05:35:43.350Z,63.67
2017-11-24T05:38:10.845Z,41.77
2017-11-24T05:40:39.083Z,39.33
2017-11-24T05:43:06.555Z,36.40
2017-11-24T05:45:34.027Z,40.33
2017-11-24T05:48:02.273Z,40.50
2017-11-24T05:50:29.755Z,39.57
2017-11-24T05:52:58.012Z,37.00
2017-11-24T05:55:25.552Z,40.93
2017-11-24T05:57:53.035Z,42.00
2017-11-24T06:00:20.515Z,50.27
2017-11-24T06:02:48.757Z,44.60
2017-11-24T06:05:16.237Z,43.57
2017-11-24T06:07:43.715Z,42.37
2017-11-24T06:10:11.958Z,48.03
2017-11-24T06:12:39.430Z,52.47
2017-11-24T06:15:06.914Z,40.50
2017-11-24T06:17:35.151Z,45.50
2017-11-24T06:20:02.645Z,46.73
2017-11-24T06:22:30.882Z,41.87
2017-11-24T06:24:58.360Z,43.27
2017-11-24T06:27:25.835Z,42.23
2017-11-24T06:29:54.077Z,45.57
2017-11-24T06:32:21.553Z,45.30
2017-11-24T06:34:49.036Z,47.40
2017-11-24T06:37:17.275Z,51.43
2017-11-24T06:39:44.748Z,46.23
2017-11-24T06:42:12.224Z,47.20
2017-11-24T06:44:40.463Z,47.63
2017-11-24T06:47:07.939Z,41.73
2017-11-24T06:49:35.420Z,44.93
2017-11-24T06:52:03.659Z,43.83
2017-11-24T06:54:31.150Z,39.40
2017-11-24T06:56:58.653Z,46.20
2017-11-24T06:59:26.140Z,37.87
2017-11-24T07:01:53.614Z,33.60
2017-11-24T07:04:22.898Z,38.63
2017-11-24T07:06:50.371Z,40.07
2017-11-24T07:09:17.844Z,36.67
2017-11-24T07:11:45.318Z,36.07
2017-11-24T07:14:13.566Z,42.37
2017-11-24T07:16:41.043Z,28.43
2017-11-24T07:19:09.286Z,42.20
2017-11-24T07:21:36.757Z,40.63
2017-11-24T07:24:04.252Z,33.63
2017-11-24T07:26:32.491Z,40.80
2017-11-24T07:28:59.964Z,35.23
2017-11-24T07:31:28.214Z,35.40
2017-11-24T07:33:55.686Z,36.17
2017-11-24T07:36:23.154Z,40.33
2017-11-24T07:38:50.631Z,35.83
2017-11-24T07:41:18.870Z,35.33
2017-11-24T07:43:46.342Z,34.87
2017-11-24T07:46:15.325Z,36.27
2017-11-24T07:48:42.810Z,40.67
2017-11-24T07:51:10.286Z,29.87
2017-11-24T07:53:38.527Z,32.73
2017-11-24T07:56:06.005Z,39.93
2017-11-24T07:58:34.248Z,40.10
2017-11-24T08:01:01.747Z,42.20
2017-11-24T08:03:29.982Z,47.97
2017-11-24T08:05:57.462Z,38.27
2017-11-24T08:08:24.938Z,48.83
2017-11-24T08:10:53.187Z,47.23
2017-11-24T08:13:20.669Z,51.63
2017-11-24T08:15:48.138Z,56.47
2017-11-24T08:18:16.390Z,60.67
2017-11-24T08:20:43.871Z,56.60
2017-11-24T08:23:12.114Z,51.83
2017-11-24T08:25:40.372Z,43.17
2017-11-24T08:28:07.855Z,49.10
2017-11-24T08:30:35.332Z,55.77
2017-11-24T08:33:02.815Z,49.77
2017-11-24T08:35:31.061Z,52.03
2017-11-24T08:37:58.534Z,49.27
2017-11-24T08:40:26.770Z,49.63
2017-11-24T08:42:54.247Z,57.20
2017-11-24T08:45:21.729Z,58.53
2017-11-24T08:47:55.654Z,47.20
2017-11-24T08:50:23.893Z,45.00
2017-11-24T08:52:52.139Z,51.03
2017-11-24T08:55:19.619Z,54.07
2017-11-24T08:57:47.099Z,40.40
2017-11-24T09:00:14.582Z,44.00
2017-11-24T09:02:42.069Z,41.63
2017-11-24T09:05:09.550Z,45.27
2017-11-24T09:07:37.034Z,58.13
2017-11-24T09:10:04.516Z,54.40
2017-11-24T09:12:31.995Z,53.27
2017-11-24T09:14:59.473Z,56.13
2017-11-24T09:17:26.965Z,49.00
2017-11-24T09:19:54.453Z,52.93
2017-11-24T09:22:22.724Z,49.43
2017-11-24T09:24:50.972Z,47.97
2017-11-24T09:27:18.451Z,57.20
2017-11-24T09:29:46.697Z,50.83
2017-11-24T09:32:14.185Z,55.97
2017-11-24T09:34:42.439Z,47.60
2017-11-24T09:37:09.927Z,51.67
2017-11-24T09:39:38.172Z,49.30
2017-11-24T09:42:05.660Z,50.83
2017-11-24T09:44:33.930Z,49.93
2017-11-24T09:47:02.907Z,48.87
2017-11-24T09:49:30.386Z,43.97
2017-11-24T09:51:58.636Z,60.53
2017-11-24T09:54:26.117Z,50.93
2017-11-24T09:56:53.590Z,70.60
2017-11-24T09:59:21.837Z,55.50
2017-11-24T10:01:49.318Z,63.47
2017-11-24T10:04:17.560Z,71.43
2017-11-24T10:06:45.042Z,62.00
2017-11-24T10:09:12.519Z,56.07
2017-11-24T10:11:40.762Z,60.70
2017-11-24T10:14:08.251Z,54.70
2017-11-24T10:16:36.499Z,61.43
2017-11-24T10:19:03.977Z,74.53
2017-11-24T10:21:37.834Z,78.30
2017-11-24T10:24:05.316Z,80.60
2017-11-24T10:26:32.802Z,71.30
2017-11-24T10:29:01.056Z,91.57
2017-11-24T10:31:28.535Z,82.40
2017-11-24T10:33:56.790Z,88.50
2017-11-24T10:36:24.295Z,79.00
2017-11-24T10:38:52.535Z,75.00
2017-11-24T10:41:20.015Z,91.43
2017-11-24T10:43:48.268Z,80.17
2017-11-24T10:46:16.520Z,80.27
2017-11-24T10:48:43.999Z,89.50
2017-11-24T10:51:11.491Z,79.77
2017-11-24T10:53:39.746Z,73.83
2017-11-24T10:56:07.225Z,76.63
2017-11-24T10:58:36.298Z,77.80
2017-11-24T11:01:04.550Z,72.97
2017-11-24T11:03:32.049Z,67.43
2017-11-24T11:06:00.298Z,75.17
2017-11-24T11:08:27.781Z,74.10
2017-11-24T11:10:55.259Z,71.93
2017-11-24T11:13:23.508Z,90.03
2017-11-24T11:15:50.997Z,86.03
2017-11-24T11:18:19.243Z,95.53
2017-11-24T11:20:46.754Z,112.20
2017-11-24T11:23:14.316Z,107.87
2017-11-24T11:25:41.794Z,103.83
2017-11-24T11:28:09.316Z,112.13
2017-11-24T11:30:36.779Z,118.53
2017-11-24T11:33:04.266Z,131.13
2017-11-24T11:35:31.755Z,124.37
2017-11-24T11:37:59.238Z,134.80
2017-11-24T11:40:27.493Z,125.37
2017-11-24T11:42:54.977Z,116.20
2017-11-24T11:45:23.230Z,126.67
2017-11-24T11:47:50.710Z,135.27
2017-11-24T11:50:18.971Z,147.17
2017-11-24T11:52:46.466Z,149.40
2017-11-24T11:55:13.961Z,138.47
2017-11-24T11:57:41.497Z,131.77
2017-11-24T12:00:08.978Z,128.73
2017-11-24T12:02:36.461Z,124.47
2017-11-24T12:05:03.954Z,127.80
2017-11-24T12:07:31.534Z,132.93
2017-11-24T12:09:59.020Z,131.03
2017-11-24T12:12:26.514Z,127.20
2017-11-24T12:14:54.770Z,145.47
2017-11-24T12:17:22.258Z,146.97
2017-11-24T12:19:50.508Z,136.30
2017-11-24T12:22:18.026Z,133.10
2017-11-24T12:24:45.648Z,138.23
2017-11-24T12:27:13.900Z,128.43
2017-11-24T12:29:41.402Z,131.10
2017-11-24T12:32:09.654Z,128.53
2017-11-24T12:34:37.144Z,135.43
2017-11-24T12:37:04.628Z,128.73
2017-11-24T12:39:32.135Z,126.07
2017-11-24T12:41:59.610Z,129.50
2017-11-24T12:44:27.853Z,140.87
2017-11-24T12:46:55.341Z,147.03
2017-11-24T12:49:23.598Z,144.93
2017-11-24T12:51:51.174Z,154.57
2017-11-24T12:54:19.425Z,145.93
2017-11-24T12:56:46.904Z,153.40
2017-11-24T12:59:15.163Z,165.53
2017-11-24T13:01:42.652Z,173.20
2017-11-24T13:04:10.912Z,173.33
2017-11-24T13:06:38.390Z,165.60
2017-11-24T13:09:06.638Z,164.90
2017-11-24T13:11:34.135Z,197.87
2017-11-24T13:14:01.621Z,177.03
2017-11-24T13:16:29.126Z,182.83
2017-11-24T13:18:56.614Z,201.33
2017-11-24T13:21:24.111Z,193.00
2017-11-24T13:23:51.596Z,195.77
2017-11-24T13:26:19.090Z,202.57
2017-11-24T13:28:46.576Z,197.53
2017-11-24T13:31:14.084Z,199.23
2017-11-24T13:33:42.404Z,191.73
2017-11-24T13:36:11.288Z,197.07
2017-11-24T13:38:38.773Z,193.20
2017-11-24T13:41:06.262Z,199.80
2017-11-24T13:43:33.770Z,204.77
2017-11-24T13:46:01.258Z,198.93
2017-11-24T13:48:28.797Z,206.93
2017-11-24T13:50:56.285Z,214.07
2017-11-24T13:53:23.774Z,194.63
2017-11-24T13:55:52.023Z,223.60
2017-11-24T13:58:19.505Z,216.40
2017-11-24T14:00:47.757Z,208.50
2017-11-24T14:03:15.250Z,232.53
2017-11-24T14:05:43.558Z,222.70
2017-11-24T14:08:11.055Z,252.73
2017-11-24T14:10:38.558Z,249.47
2017-11-24T14:13:06.042Z,245.17
2017-11-24T14:15:33.531Z,235.17
2017-11-24T14:18:01.018Z,261.60
2017-11-24T14:20:29.269Z,249.10
2017-11-24T14:22:56.758Z,246.90
2017-11-24T14:25:25.006Z,236.43
2017-11-24T14:27:52.490Z,223.53
2017-11-24T14:30:20.767Z,229.10
2017-11-24T14:32:48.245Z,251.13
2017-11-24T14:35:15.728Z,245.03
2017-11-24T14:37:43.214Z,255.13
2017-11-24T14:40:10.700Z,238.50
2017-11-24T14:42:38.954Z,247.67
2017-11-24T14:45:06.439Z,240.00
2017-11-24T14:47:34.694Z,234.20
2017-11-24T14:50:02.183Z,249.53
2017-11-24T14:52:30.434Z,249.47
2017-11-24T14:54:57.918Z,255.70
2017-11-24T14:57:26.173Z,242.53
2017-11-24T14:59:53.663Z,232.27
2017-11-24T15:02:21.150Z,253.07
2017-11-24T15:04:48.634Z,230.33
2017-11-24T15:07:16.126Z,235.60
2017-11-24T15:09:44.378Z,253.53
2017-11-24T15:12:11.863Z,258.40
2017-11-24T15:14:40.109Z,245.30
2017-11-24T15:17:07.593Z,257.70
2017-11-24T15:19:35.846Z,266.70
2017-11-24T15:22:03.334Z,252.77
2017-11-24T15:24:31.592Z,260.13
2017-11-24T15:26:59.099Z,269.33
2017-11-24T15:29:26.616Z,273.00
2017-11-24T15:31:54.094Z,272.73
2017-11-24T15:34:21.586Z,277.03
2017-11-24T15:36:49.069Z,266.97
2017-11-24T15:39:16.551Z,271.90
2017-11-24T15:41:44.883Z,282.70
2017-11-24T15:44:12.370Z,262.50
2017-11-24T15:46:39.891Z,261.80
2017-11-24T15:49:07.369Z,268.10
2017-11-24T15:51:34.854Z,287.37
2017-11-24T15:54:02.341Z,274.77
2017-11-24T15:56:30.596Z,252.73
2017-11-24T15:58:58.105Z,241.93
2017-11-24T16:01:25.603Z,223.33
2017-11-24T16:03:53.089Z,226.70
2017-11-24T16:06:21.338Z,216.80
2017-11-24T16:08:48.822Z,239.23
2017-11-24T16:11:17.091Z,218.67
2017-11-24T16:13:44.588Z,237.77
2017-11-24T16:16:12.082Z,223.77
2017-11-24T16:18:39.573Z,226.70
2017-11-24T16:21:07.855Z,254.27
2017-11-24T16:23:36.102Z,239.50
2017-11-24T16:26:03.586Z,247.60
2017-11-24T16:28:31.865Z,264.50
2017-11-24T16:30:59.341Z,257.77
2017-11-24T16:33:27.598Z,254.23
2017-11-24T16:35:55.850Z,253.13
2017-11-24T16:38:23.334Z,253.57
2017-11-24T16:40:51.584Z,257.77
2017-11-24T16:43:19.070Z,260.07
2017-11-24T16:45:47.335Z,270.50
2017-11-24T16:48:14.826Z,255.40
2017-11-24T16:50:43.086Z,257.13
2017-11-24T16:53:11.334Z,262.63
2017-11-24T16:55:38.822Z,267.47
2017-11-24T16:58:07.071Z,289.93
2017-11-24T17:00:34.557Z,279.57
2017-11-24T17:03:02.806Z,291.53
2017-11-24T17:05:30.290Z,284.03
2017-11-24T17:07:58.553Z,302.00
2017-11-24T17:10:26.045Z,295.70
2017-11-24T17:12:54.303Z,268.73
2017-11-24T17:15:22.553Z,276.63
2017-11-24T17:17:50.039Z,295.40
2017-11-24T17:20:18.290Z,315.37
2017-11-24T17:22:45.778Z,297.43
2017-11-24T17:25:14.036Z,295.50
2017-11-24T17:27:41.530Z,320.10
2017-11-24T17:30:09.786Z,281.20
2017-11-24T17:32:38.047Z,295.73
2017-11-24T17:35:05.581Z,271.13
2017-11-24T17:37:33.070Z,252.63
2017-11-24T17:40:00.565Z,273.83
2017-11-24T17:42:28.820Z,267.17
2017-11-24T17:44:57.199Z,246.27
2017-11-24T17:47:25.451Z,233.40
2017-11-24T17:49:52.939Z,242.57
2017-11-24T17:52:21.186Z,317.73
2017-11-24T17:54:48.675Z,254.23
2017-11-24T17:57:16.925Z,233.63
2017-11-24T17:59:44.407Z,222.13
2017-11-24T18:02:12.667Z,223.13
2017-11-24T18:04:41.667Z,238.10
2017-11-24T18:07:09.150Z,231.13
2017-11-24T18:09:37.415Z,224.37
2017-11-24T18:12:05.658Z,222.17
2017-11-24T18:14:33.146Z,224.23
2017-11-24T18:17:00.638Z,245.07
2017-11-24T18:19:28.139Z,210.83
2017-11-24T18:21:55.625Z,228.53
2017-11-24T18:24:23.119Z,227.07
2017-11-24T18:26:50.603Z,229.77
2017-11-24T18:29:18.098Z,218.17
2017-11-24T18:31:45.592Z,213.40
2017-11-24T18:34:13.085Z,246.70
2017-11-24T18:36:40.578Z,230.33
2017-11-24T18:39:08.836Z,236.40
2017-11-24T18:41:36.325Z,224.33
2017-11-24T18:44:04.584Z,239.40
2017-11-24T18:46:32.066Z,230.77
2017-11-24T18:49:00.317Z,243.00
2017-11-24T18:51:27.819Z,255.67
2017-11-24T18:53:55.313Z,250.57
2017-11-24T18:56:22.802Z,249.43
2017-11-24T18:58:50.295Z,255.80
2017-11-24T19:01:17.791Z,263.40
2017-11-24T19:03:45.278Z,272.37
2017-11-24T19:06:12.793Z,276.27
2017-11-24T19:08:40.277Z,265.27
2017-11-24T19:11:07.763Z,284.13
2017-11-24T19:13:36.010Z,266.87
2017-11-24T19:16:03.497Z,262.07
2017-11-24T19:18:31.755Z,267.43
2017-11-24T19:20:59.276Z,265.17
2017-11-24T19:23:26.778Z,245.63
2017-11-24T19:25:54.291Z,229.63
2017-11-24T19:28:21.770Z,245.07
2017-11-24T19:30:49.261Z,248.20
2017-11-24T19:33:16.747Z,241.27
2017-11-24T19:35:45.011Z,407.77
2017-11-24T19:38:13.262Z,232.70
2017-11-24T19:40:40.746Z,255.20
2017-11-24T19:43:09.000Z,239.87
2017-11-24T19:45:36.487Z,254.30
2017-11-24T19:48:04.753Z,251.93
2017-11-24T19:50:33.012Z,272.23
2017-11-24T19:53:00.502Z,278.70
2017-11-24T19:55:28.753Z,289.23
2017-11-24T19:57:57.018Z,285.00
2017-11-24T20:00:24.533Z,274.63
2017-11-24T20:02:52.046Z,289.27
2017-11-24T20:05:19.534Z,290.13
2017-11-24T20:07:47.787Z,246.73
2017-11-24T20:10:16.779Z,236.43
2017-11-24T20:12:46.116Z,239.67
2017-11-24T20:15:13.630Z,250.03
2017-11-24T20:17:41.130Z,259.93
2017-11-24T20:20:08.626Z,249.57
2017-11-24T20:22:36.114Z,258.43
2017-11-24T20:25:03.603Z,240.03
2017-11-24T20:27:31.988Z,263.63
2017-11-24T20:30:00.410Z,266.77
2017-11-24T20:32:27.907Z,271.17
2017-11-24T20:34:56.178Z,285.23
2017-11-24T20:37:24.433Z,279.80
2017-11-24T20:39:51.923Z,306.33
2017-11-24T20:42:20.181Z,289.40
2017-11-24T20:44:47.679Z,260.33
2017-11-24T20:47:15.182Z,272.90
2017-11-24T20:49:42.670Z,296.10
2017-11-24T20:52:10.166Z,315.50
2017-11-24T20:54:37.690Z,317.47
2017-11-24T20:57:05.998Z,351.43
2017-11-24T20:59:33.506Z,331.20
2017-11-24T21:02:01.002Z,331.37
2017-11-24T21:04:29.258Z,305.17
2017-11-24T21:06:56.755Z,364.43
2017-11-24T21:09:25.022Z,303.47
2017-11-24T21:11:53.284Z,298.27
2017-11-24T21:14:21.543Z,295.00
2017-11-24T21:16:49.030Z,302.90
2017-11-24T21:19:17.287Z,299.97
2017-11-24T21:21:44.777Z,299.90
2017-11-24T21:24:13.032Z,316.53
2017-11-24T21:26:41.286Z,342.43
2017-11-24T21:29:08.774Z,326.53
2017-11-24T21:31:37.037Z,318.37
2017-11-24T21:34:06.026Z,324.93
2017-11-24T21:36:33.535Z,318.40
2017-11-24T21:39:01.028Z,330.20
2017-11-24T21:41:28.523Z,317.33
2017-11-24T21:43:56.774Z,311.60
2017-11-24T21:46:24.263Z,332.67
2017-11-24T21:48:52.528Z,311.57
2017-11-24T21:51:20.806Z,307.23
2017-11-24T21:53:48.293Z,293.17
2017-11-24T21:56:15.789Z,298.70
2017-11-24T21:58:43.273Z,301.13
2017-11-24T22:01:10.767Z,273.73
2017-11-24T22:03:38.259Z,292.80
2017-11-24T22:06:05.762Z,282.60
2017-11-24T22:08:34.025Z,303.70
2017-11-24T22:11:01.611Z,306.03
2017-11-24T22:13:29.114Z,275.20
2017-11-24T22:15:56.614Z,270.83
2017-11-24T22:18:24.103Z,272.67
2017-11-24T22:20:51.594Z,280.93
2017-11-24T22:23:19.086Z,281.20
2017-11-24T22:25:46.578Z,279.27
2017-11-24T22:28:14.065Z,264.53
2017-11-24T22:30:41.554Z,277.37
2017-11-24T22:33:09.076Z,256.80
2017-11-24T22:35:36.574Z,262.50
2017-11-24T22:38:04.064Z,262.23
2017-11-24T22:40:32.328Z,321.37
2017-11-24T22:43:00.591Z,272.73
2017-11-24T22:45:28.181Z,288.80
2017-11-24T22:47:56.485Z,272.17
2017-11-24T22:50:23.970Z,246.80
2017-11-24T22:52:51.474Z,248.43
2017-11-24T22:55:19.732Z,257.90
2017-11-24T22:57:47.238Z,272.20
2017-11-24T23:00:14.726Z,265.70
2017-11-24T23:02:42.309Z,267.10
2017-11-24T23:05:09.801Z,260.60
2017-11-24T23:07:37.294Z,247.40
2017-11-24T23:10:04.786Z,232.13
2017-11-24T23:12:32.279Z,252.27
2017-11-24T23:15:00.063Z,255.43
2017-11-24T23:17:27.555Z,245.07
2017-11-24T23:19:55.043Z,252.70
2017-11-24T23:22:23.294Z,249.57
2017-11-24T23:24:50.783Z,232.27
2017-11-24T23:27:19.038Z,255.37
2017-11-24T23:29:46.529Z,244.77
2017-11-24T23:32:14.791Z,247.30
2017-11-24T23:34:43.050Z,246.07
2017-11-24T23:37:10.772Z,251.40
2017-11-24T23:39:39.191Z,249.73
2017-11-24T23:42:07.339Z,258.50
2017-11-24T23:44:34.835Z,238.13
2017-11-24T23:47:03.123Z,236.23
2017-11-24T23:49:31.386Z,238.23
2017-11-24T23:51:59.638Z,245.83
2017-11-24T23:54:27.127Z,226.20
2017-11-24T23:56:54.622Z,225.13
2017-11-24T23:59:22.115Z,240.37
